Time;durP1;ratioP1;P1;durP2;ratioP2;P2;SDS_P1;SDS_P2;PMS_P1;PMS_P2;Temp;Humidity;BMP_temperature;BMP_pressure;BME280_temperature;BME280_humidity;BME280_pressure;Samples;Min_cycle;Max_cycle;Signal;HPM_P1;HPM_P2
2024/03/03 00:00:13;;;;;;;60.88;31.98;;;;;;;15.39;70.39;100298.31;5025190;27;99048;-70
2024/03/03 00:02:39;;;;;;;54.70;31.00;;;;;;;15.52;70.44;100300.13;5021366;27;97006;-68
2024/03/03 00:05:07;;;;;;;58.10;31.42;;;;;;;15.46;70.48;100291.66;5024743;27;97364;-68
2024/03/03 00:07:33;;;;;;;55.22;31.77;;;;;;;15.46;70.51;100288.97;5026562;27;96943;-69
2024/03/03 00:09:59;;;;;;;59.88;32.65;;;;;;;15.26;71.04;100286.72;5026792;27;98801;-67
2024/03/03 00:12:27;;;;;;;57.50;32.55;;;;;;;15.38;70.79;100286.78;5025037;27;98576;-69
2024/03/03 00:14:53;;;;;;;64.55;34.00;;;;;;;15.30;71.02;100278.44;5028487;27;96920;-69
2024/03/03 00:17:21;;;;;;;58.13;31.98;;;;;;;15.40;70.97;100289.38;5023979;27;99331;-69
2024/03/03 00:19:47;;;;;;;61.78;32.35;;;;;;;15.37;71.13;100285.06;5026742;27;98768;-69
2024/03/03 00:22:14;;;;;;;62.88;33.13;;;;;;;15.29;71.36;100282.06;5021713;27;96916;-69
2024/03/03 00:24:40;;;;;;;63.05;33.72;;;;;;;15.14;71.73;100283.00;5026990;27;97548;-69
2024/03/03 00:27:07;;;;;;;65.80;34.28;;;;;;;15.32;71.59;100281.00;5024383;27;99265;-68
2024/03/03 00:29:33;;;;;;;62.13;33.83;;;;;;;15.23;71.60;100277.09;5021479;27;97789;-68
2024/03/03 00:32:00;;;;;;;65.72;35.22;;;;;;;15.15;71.93;100279.41;5024082;27;97174;-68
2024/03/03 00:34:27;;;;;;;60.25;33.35;;;;;;;15.16;71.68;100289.09;5025590;27;96895;-69
2024/03/03 00:36:54;;;;;;;65.20;33.67;;;;;;;15.00;72.80;100272.34;5026770;27;99391;-69
2024/03/03 00:39:20;;;;;;;62.72;34.22;;;;;;;15.02;72.87;100275.78;5028377;27;101520;-68
2024/03/03 00:41:47;;;;;;;63.53;34.80;;;;;;;15.05;72.28;100265.78;5019808;27;96851;-68
2024/03/03 00:44:13;;;;;;;57.92;33.53;;;;;;;15.15;71.93;100269.59;5025504;27;97628;-67
2024/03/03 00:46:39;;;;;;;64.53;33.55;;;;;;;14.88;72.91;100273.94;5022067;27;97886;-67
2024/03/03 00:49:06;;;;;;;56.40;33.58;;;;;;;15.16;72.21;100265.16;5023679;27;98869;-67
2024/03/03 00:51:34;;;;;;;63.55;34.30;;;;;;;15.11;71.69;100270.72;5026983;27;96753;-67
2024/03/03 00:54:00;;;;;;;60.30;33.47;;;;;;;15.01;72.08;100266.06;5028780;27;97560;-68
2024/03/03 00:56:27;;;;;;;65.63;33.78;;;;;;;15.30;71.13;100267.78;5028241;27;98384;-67
2024/03/03 00:58:53;;;;;;;59.25;33.03;;;;;;;15.12;71.31;100267.13;5022845;27;98774;-67
2024/03/03 01:01:20;;;;;;;69.20;34.47;;;;;;;14.87;72.37;100261.59;5025080;27;96836;-68
2024/03/03 01:03:46;;;;;;;55.70;32.53;;;;;;;14.92;72.50;100267.47;5027122;27;98120;-68
2024/03/03 01:06:12;;;;;;;61.45;33.75;;;;;;;14.98;71.90;100267.09;5023594;27;99368;-67
2024/03/03 01:08:40;;;;;;;59.72;33.03;;;;;;;14.98;72.13;100268.91;5026196;27;98826;-67
2024/03/03 01:11:06;;;;;;;61.10;33.28;;;;;;;14.90;71.84;100268.56;5028937;27;100443;-73
2024/03/03 01:13:33;;;;;;;64.53;33.53;;;;;;;14.90;72.26;100268.56;5024171;27;98454;-74
2024/03/03 01:15:59;;;;;;;62.67;34.55;;;;;;;14.77;72.72;100274.59;5021507;27;97654;-73
2024/03/03 01:18:25;;;;;;;63.25;35.05;;;;;;;14.99;72.35;100267.97;5029868;27;99022;-73
2024/03/03 01:20:52;;;;;;;62.85;35.67;;;;;;;15.07;71.70;100268.34;5030196;27;97485;-73
2024/03/03 01:23:19;;;;;;;65.78;35.30;;;;;;;15.06;71.90;100267.50;5024177;27;96913;-73
2024/03/03 01:25:49;;;;;;;61.75;34.40;;;;;;;14.98;72.09;100264.44;5031887;27;98923;-74
2024/03/03 01:28:15;;;;;;;64.80;36.05;;;;;;;14.90;72.23;100264.06;5028548;27;99146;-74
2024/03/03 01:30:41;;;;;;;59.58;33.78;;;;;;;15.00;71.84;100272.34;5028654;27;97733;-74
2024/03/03 01:33:08;;;;;;;61.97;34.22;;;;;;;14.93;72.56;100279.84;5032619;27;97666;-72
2024/03/03 01:35:35;;;;;;;71.78;37.25;;;;;;;14.59;73.22;100278.34;5036965;27;99357;-73
2024/03/03 01:38:04;;;;;;;64.35;35.58;;;;;;;14.61;73.55;100278.25;5034512;27;102343;-72
2024/03/03 01:40:30;;;;;;;66.07;35.83;;;;;;;14.72;73.57;100281.13;5036543;27;96789;-74
2024/03/03 01:42:59;;;;;;;65.30;34.72;;;;;;;14.59;74.14;100278.34;5023741;27;98832;-76
2024/03/03 01:45:25;;;;;;;62.17;35.65;;;;;;;14.41;74.56;100284.75;5029975;27;98890;-73
2024/03/03 01:47:54;;;;;;;64.65;35.58;;;;;;;14.60;73.85;100269.44;5022426;27;100887;-75
2024/03/03 01:50:22;;;;;;;65.50;35.90;;;;;;;14.43;74.42;100279.34;5025149;27;96937;-74
2024/03/03 01:52:51;;;;;;;67.55;36.25;;;;;;;14.48;74.17;100271.97;5025110;27;97476;-76
2024/03/03 01:55:19;;;;;;;62.78;35.00;;;;;;;14.55;73.97;100275.97;5032980;27;102472;-75
2024/03/03 01:57:46;;;;;;;70.03;36.78;;;;;;;14.48;74.54;100270.16;5029941;27;97512;-74
2024/03/03 02:00:14;;;;;;;73.70;39.25;;;;;;;14.51;73.72;100271.75;5025552;27;97752;-75
2024/03/03 02:02:42;;;;;;;72.50;38.47;;;;;;;14.50;73.97;100270.94;5027398;27;97150;-75
2024/03/03 02:05:10;;;;;;;73.07;35.42;;;;;;;14.53;73.80;100264.56;5030228;27;99682;-74
2024/03/03 02:07:36;;;;;;;69.13;36.63;;;;;;;14.40;74.52;100267.09;5031839;27;99605;-74
2024/03/03 02:10:07;;;;;;;67.60;35.15;;;;;;;14.38;73.85;100268.97;5029647;27;97619;-74
2024/03/03 02:12:33;;;;;;;67.15;36.10;;;;;;;14.48;73.79;100266.63;5024803;27;96766;-75
2024/03/03 02:15:00;;;;;;;69.35;36.08;;;;;;;14.41;74.28;100267.94;5032791;27;97841;-75
2024/03/03 02:17:27;;;;;;;68.80;36.30;;;;;;;14.37;74.35;100269.91;5031241;27;99133;-75
2024/03/03 02:19:54;;;;;;;64.38;35.72;;;;;;;13.94;75.83;100259.09;5033760;27;97360;-73
2024/03/03 02:22:22;;;;;;;64.32;36.25;;;;;;;13.98;75.58;100262.41;5031844;27;97392;-74
2024/03/03 02:24:48;;;;;;;64.80;36.00;;;;;;;13.96;75.77;100259.88;5025104;27;99054;-75
2024/03/03 02:27:15;;;;;;;62.85;34.97;;;;;;;14.23;74.68;100264.53;5027594;27;98890;-75
2024/03/03 02:29:41;;;;;;;67.53;38.38;;;;;;;14.09;75.30;100261.81;5026686;27;96857;-75
2024/03/03 02:32:07;;;;;;;64.40;35.28;;;;;;;14.19;75.41;100252.34;5027243;27;96859;-74
2024/03/03 02:34:34;;;;;;;66.95;36.08;;;;;;;14.17;74.87;100257.78;5028039;27;98972;-75
2024/03/03 02:36:59;;;;;;;64.70;34.85;;;;;;;14.14;74.93;100246.47;5028392;27;101487;-74
2024/03/03 02:39:27;;;;;;;;;;;;;;;14.09;75.62;100249.38;5029665;27;97375;-74
2024/03/03 02:41:53;;;;;;;;;;;;;;;14.32;74.41;100243.56;5029334;27;97096;-74
2024/03/03 02:44:19;;;;;;;70.10;35.17;;;;;;;14.28;74.43;100249.16;5026499;27;99288;-74
2024/03/03 02:46:48;;;;;;;67.40;35.35;;;;;;;14.28;74.09;100243.84;5025033;27;98740;-74
2024/03/03 02:49:14;;;;;;;73.95;36.05;;;;;;;13.95;75.17;100250.19;5026546;28;98460;-74
2024/03/03 02:51:42;;;;;;;66.82;36.53;;;;;;;14.13;75.01;100255.38;5024918;27;97409;-76
2024/03/03 02:54:08;;;;;;;68.72;36.55;;;;;;;14.15;75.26;100248.19;5026809;27;99375;-75
2024/03/03 02:56:36;;;;;;;66.82;36.42;;;;;;;14.23;75.03;100251.25;5030549;27;98063;-75
2024/03/03 02:59:02;;;;;;;73.90;37.20;;;;;;;14.08;75.61;100245.00;5031171;27;96853;-76
2024/03/03 03:01:29;;;;;;;63.28;35.55;;;;;;;13.99;75.74;100242.88;5034264;27;97387;-75
2024/03/03 03:03:55;;;;;;;71.30;38.47;;;;;;;13.84;76.25;100244.63;5025215;27;99248;-75
2024/03/03 03:06:22;;;;;;;68.53;38.47;;;;;;;14.05;76.06;100245.19;5025895;27;98803;-74
2024/03/03 03:08:48;;;;;;;73.72;38.22;;;;;;;14.01;76.19;100242.78;5023423;27;99949;-75
2024/03/03 03:11:15;;;;;;;282.00;128.70;;;;;;;14.24;75.20;100237.03;5030402;27;98468;-75
2024/03/03 03:13:44;;;;;;;74.63;39.78;;;;;;;14.32;74.87;100238.25;5022876;27;99777;-74
2024/03/03 03:16:10;;;;;;;74.75;39.55;;;;;;;14.23;75.03;100236.16;5026064;27;99602;-74
2024/03/03 03:18:36;;;;;;;72.03;37.42;;;;;;;14.03;75.96;100233.81;5027018;27;96763;-74
2024/03/03 03:21:05;;;;;;;70.00;38.17;;;;;;;14.13;75.66;100240.28;5027496;27;96957;-73
2024/03/03 03:23:32;;;;;;;72.97;39.92;;;;;;;14.05;76.29;100236.34;5024569;27;99059;-73
2024/03/03 03:25:58;;;;;;;71.43;39.00;;;;;;;14.19;75.76;100231.94;5025154;27;97910;-73
2024/03/03 03:28:25;;;;;;;66.93;36.78;;;;;;;14.13;76.11;100228.78;5028510;27;96966;-73
2024/03/03 03:30:53;;;;;;;71.47;37.33;;;;;;;14.08;76.38;100234.38;5031301;27;97207;-73
2024/03/03 03:33:19;;;;;;;69.45;39.55;;;;;;;13.98;77.02;100227.88;5022666;27;99525;-74
2024/03/03 03:35:46;;;;;;;72.50;37.85;;;;;;;13.88;76.83;100234.69;5030828;27;97666;-74
2024/03/03 03:38:12;;;;;;;72.18;37.58;;;;;;;14.06;76.80;100230.94;5024766;27;98353;-74
2024/03/03 03:40:39;;;;;;;71.53;38.20;;;;;;;14.25;76.15;100234.25;5026216;27;97599;-74
2024/03/03 03:43:06;;;;;;;76.13;39.25;;;;;;;14.26;75.95;100224.47;5026863;27;99106;-73
2024/03/03 03:45:32;;;;;;;71.30;37.15;;;;;;;14.10;76.26;100224.53;5031614;27;98872;-74
2024/03/03 03:48:00;;;;;;;69.85;38.22;;;;;;;14.18;76.23;100226.72;5020839;27;97197;-74
2024/03/03 03:50:27;;;;;;;68.95;38.42;;;;;;;14.28;75.84;100223.47;5027644;27;96930;-75
2024/03/03 03:52:53;;;;;;;65.72;39.15;;;;;;;14.14;75.89;100230.50;5023644;27;99435;-73
2024/03/03 03:55:20;;;;;;;66.97;38.17;;;;;;;14.44;74.88;100226.06;5033166;27;98877;-73
2024/03/03 03:57:46;;;;;;;72.80;40.42;;;;;;;14.46;74.67;100228.66;5028065;27;97966;-73
2024/03/03 04:00:14;;;;;;;71.20;38.53;;;;;;;14.54;74.55;100234.38;5027778;27;96844;-73
2024/03/03 04:02:40;;;;;;;67.03;38.00;;;;;;;14.18;75.80;100232.03;5025567;27;97969;-72
2024/03/03 04:05:09;;;;;;;70.95;37.90;;;;;;;14.30;75.79;100229.53;5025077;27;98879;-73
2024/03/03 04:07:37;;;;;;;75.97;38.92;;;;;;;14.57;74.55;100221.72;5018885;27;97444;-73
2024/03/03 04:10:04;;;;;;;70.88;39.08;;;;;;;14.57;74.20;100224.41;5021746;27;96983;-74
2024/03/03 04:12:31;;;;;;;67.97;38.38;;;;;;;14.25;75.15;100228.06;5014539;27;98917;-73
2024/03/03 04:14:57;;;;;;;64.47;37.10;;;;;;;14.39;75.34;100224.63;5025083;27;99132;-75
2024/03/03 04:17:23;;;;;;;68.75;38.45;;;;;;;14.28;75.39;100227.91;5022790;27;96838;-75
2024/03/03 04:19:50;;;;;;;69.65;38.85;;;;;;;14.24;75.38;100223.75;5025208;27;98025;-76
2024/03/03 04:22:18;;;;;;;71.03;39.00;;;;;;;14.38;74.96;100225.59;5023720;27;99197;-75
2024/03/03 04:24:44;;;;;;;72.20;39.45;;;;;;;14.22;75.53;100225.63;5026574;27;98906;-75
2024/03/03 04:27:10;;;;;;;78.60;39.45;;;;;;;14.28;75.77;100227.91;5024286;27;98415;-74
2024/03/03 04:29:37;;;;;;;73.60;38.80;;;;;;;14.36;75.56;100215.91;5023526;27;97639;-75
2024/03/03 04:32:04;;;;;;;73.90;41.35;;;;;;;14.34;75.33;100216.91;5022293;27;99245;-75
2024/03/03 04:34:31;;;;;;;83.70;41.05;;;;;;;14.42;75.13;100214.69;5026862;27;101210;-75
2024/03/03 04:36:57;;;;;;;80.15;41.20;;;;;;;14.54;74.83;100211.31;5027271;27;96904;-75
2024/03/03 04:39:25;;;;;;;72.43;38.88;;;;;;;14.28;75.93;100211.97;5023086;27;98345;-76
2024/03/03 04:41:52;;;;;;;74.85;39.25;;;;;;;14.37;75.88;100214.09;5026469;27;97896;-75
2024/03/03 04:44:18;;;;;;;71.53;39.15;;;;;;;14.20;76.02;100214.22;5034951;27;98018;-74
2024/03/03 04:46:44;;;;;;;72.00;40.10;;;;;;;14.35;75.86;100213.31;5030551;27;97225;-74
2024/03/03 04:49:11;;;;;;;75.65;40.97;;;;;;;14.58;75.11;100212.81;5026767;27;97000;-74
2024/03/03 04:51:37;;;;;;;76.78;41.10;;;;;;;14.43;75.27;100221.72;5021809;27;98419;-75
2024/03/03 04:54:04;;;;;;;71.95;40.85;;;;;;;14.54;75.09;100213.97;5021031;27;99282;-74
2024/03/03 04:56:31;;;;;;;72.13;40.17;;;;;;;14.58;75.08;100212.81;5025023;27;97262;-74
2024/03/03 04:58:58;;;;;;;73.68;40.40;;;;;;;14.47;75.72;100209.09;5029304;27;97280;-74
2024/03/03 05:01:26;;;;;;;74.05;40.58;;;;;;;14.49;75.40;100213.38;5027771;27;99044;-74
2024/03/03 05:03:52;;;;;;;75.68;40.47;;;;;;;14.54;75.62;100215.75;5028581;27;98780;-74
2024/03/03 05:06:19;;;;;;;71.95;40.13;;;;;;;14.66;74.76;100205.25;5024960;27;98351;-73
2024/03/03 05:08:45;;;;;;;73.72;40.70;;;;;;;14.27;75.94;100210.25;5027544;27;97803;-75
2024/03/03 05:11:12;;;;;;;68.80;40.75;;;;;;;14.34;75.97;100211.59;5027205;27;99613;-74
2024/03/03 05:13:39;;;;;;;73.82;39.92;;;;;;;14.47;75.94;100215.28;5027050;27;98532;-75
2024/03/03 05:16:07;;;;;;;76.32;41.40;;;;;;;14.23;76.47;100219.38;5026642;27;98641;-74
2024/03/03 05:18:34;;;;;;;75.53;40.33;;;;;;;14.41;75.90;100217.44;5026899;27;97221;-74
2024/03/03 05:21:00;;;;;;;71.65;39.90;;;;;;;14.42;75.88;100225.34;5027947;27;97954;-74
2024/03/03 05:23:27;;;;;;;68.43;40.25;;;;;;;14.53;75.00;100222.88;5020084;27;98872;-76
2024/03/03 05:25:53;;;;;;;74.55;41.42;;;;;;;14.56;74.98;100220.06;5028053;27;97184;-76
2024/03/03 05:28:20;;;;;;;74.65;41.50;;;;;;;14.52;75.45;100225.63;5019934;27;98544;-77
2024/03/03 05:30:47;;;;;;;71.20;40.40;;;;;;;14.31;76.39;100227.72;5022520;27;100587;-77
2024/03/03 05:33:14;;;;;;;76.57;41.97;;;;;;;14.50;75.75;100225.75;5025224;27;99135;-76
2024/03/03 05:35:41;;;;;;;81.90;41.75;;;;;;;14.39;76.39;100228.16;5029064;27;98705;-77
2024/03/03 05:38:09;;;;;;;72.03;40.00;;;;;;;14.50;76.47;100228.41;5028108;27;97095;-77
2024/03/03 05:40:35;;;;;;;72.85;39.78;;;;;;;14.36;76.53;100221.22;5028438;27;98331;-77
2024/03/03 05:43:02;;;;;;;73.82;40.65;;;;;;;14.60;76.26;100223.38;5024061;27;99159;-76
2024/03/03 05:45:28;;;;;;;77.80;40.80;;;;;;;14.57;76.31;100227.06;5027354;27;96866;-76
2024/03/03 05:47:56;;;;;;;78.45;40.40;;;;;;;14.44;76.93;100228.72;5024959;27;97847;-75
2024/03/03 05:50:22;;;;;;;75.53;42.13;;;;;;;14.69;76.03;100231.66;5030301;27;98931;-76
2024/03/03 05:52:49;;;;;;;81.45;42.75;;;;;;;14.61;76.24;100228.59;5031280;27;98843;-76
2024/03/03 05:55:15;;;;;;;70.18;39.55;;;;;;;14.77;76.02;100231.16;5021894;27;99319;-76
2024/03/03 05:57:42;;;;;;;74.88;41.83;;;;;;;14.72;76.15;100238.56;5025897;27;98357;-76
2024/03/03 06:00:09;;;;;;;70.07;38.85;;;;;;;14.64;76.41;100239.03;5027049;27;99229;-75
2024/03/03 06:02:35;;;;;;;77.72;41.58;;;;;;;14.82;76.24;100238.88;5023368;27;99124;-77
2024/03/03 06:05:04;;;;;;;70.35;39.38;;;;;;;14.79;76.51;100236.41;5034764;27;97285;-77
2024/03/03 06:07:31;;;;;;;74.18;39.97;;;;;;;14.95;75.58;100237.19;5021311;27;98714;-78
2024/03/03 06:09:57;;;;;;;70.25;38.92;;;;;;;14.94;75.35;100241.66;5026038;27;99119;-75
2024/03/03 06:12:24;;;;;;;70.05;40.22;;;;;;;14.88;75.36;100243.84;5026020;27;101331;-76
2024/03/03 06:14:51;;;;;;;68.80;39.03;;;;;;;14.86;76.04;100246.59;5032786;27;97261;-76
2024/03/03 06:17:18;;;;;;;71.40;40.60;;;;;;;14.99;75.49;100241.34;5028818;27;98834;-75
2024/03/03 06:19:44;;;;;;;68.25;38.80;;;;;;;14.75;76.08;100251.72;5030472;27;99252;-74
2024/03/03 06:22:12;;;;;;;82.18;40.20;;;;;;;14.75;76.44;100251.72;5024498;27;98848;-74
2024/03/03 06:24:39;;;;;;;69.22;39.17;;;;;;;14.74;76.55;100253.50;5029128;27;102132;-74
2024/03/03 06:27:05;;;;;;;73.13;40.90;;;;;;;14.91;75.95;100255.13;5026173;27;98038;-74
2024/03/03 06:29:34;;;;;;;77.47;40.80;;;;;;;14.93;75.84;100253.25;5031251;27;99703;-75
2024/03/03 06:32:01;;;;;;;71.38;40.83;;;;;;;14.71;76.92;100250.16;5026124;27;99248;-75
2024/03/03 06:34:27;;;;;;;74.20;41.35;;;;;;;14.82;76.46;100244.22;5030089;27;96857;-75
2024/03/03 06:36:54;;;;;;;71.68;40.30;;;;;;;15.02;75.83;100252.69;5027935;27;97549;-75
2024/03/03 06:39:21;;;;;;;74.25;41.13;;;;;;;14.88;75.97;100246.50;5029408;27;98553;-75
2024/03/03 06:41:48;;;;;;;79.07;40.08;;;;;;;15.00;76.17;100253.72;5019178;27;99333;-75
2024/03/03 06:44:16;;;;;;;74.30;40.47;;;;;;;14.97;76.02;100245.91;5033671;27;98777;-75
2024/03/03 06:46:44;;;;;;;70.75;38.58;;;;;;;15.15;75.49;100252.78;5031782;27;96833;-74
2024/03/03 06:49:10;;;;;;;71.13;38.67;;;;;;;15.01;76.01;100252.78;5029942;27;101919;-74
2024/03/03 06:51:37;;;;;;;69.20;39.67;;;;;;;15.26;75.07;100250.31;5030636;27;99320;-74
2024/03/03 06:54:03;;;;;;;75.38;38.78;;;;;;;15.12;75.39;100253.81;5026134;27;96796;-74
2024/03/03 06:56:31;;;;;;;67.07;39.67;;;;;;;14.94;75.93;100254.09;5026337;27;97062;-74
2024/03/03 06:58:59;;;;;;;67.60;38.45;;;;;;;15.15;75.69;100248.31;5034661;27;98877;-75
2024/03/03 07:01:26;;;;;;;77.40;40.85;;;;;;;15.19;75.55;100254.28;5026787;27;98075;-74
2024/03/03 07:04:09;;;;;;;71.30;41.03;;;;;;;15.43;74.70;100246.56;5036932;27;96962;-74
2024/03/03 07:06:36;;;;;;;74.65;39.47;;;;;;;15.44;74.96;100249.13;5028558;27;100851;-76
2024/03/03 07:09:04;;;;;;;73.78;40.22;;;;;;;15.49;74.35;100246.19;5023244;27;99460;-75
2024/03/03 07:11:32;;;;;;;68.15;38.67;;;;;;;15.71;73.76;100251.88;5033559;27;98944;-74
2024/03/03 07:13:58;;;;;;;69.20;39.38;;;;;;;15.60;73.42;100237.56;5023799;27;98324;-74
2024/03/03 07:16:25;;;;;;;68.72;38.63;;;;;;;15.65;73.71;100240.78;5031949;27;96890;-75
2024/03/03 07:18:51;;;;;;;66.47;39.58;;;;;;;15.76;73.47;100244.44;5027178;27;99004;-75
2024/03/03 07:21:18;;;;;;;67.97;38.22;;;;;;;15.66;73.59;100253.13;5026399;27;98904;-75
2024/03/03 07:23:44;;;;;;;63.20;37.22;;;;;;;15.68;73.68;100257.41;5025788;27;97248;-74
2024/03/03 07:26:10;;;;;;;67.35;39.20;;;;;;;15.87;73.00;100257.09;5020872;27;97146;-76
2024/03/03 07:28:38;;;;;;;70.13;38.80;;;;;;;15.85;72.90;100257.19;5025343;27;98227;-76
2024/03/03 07:31:04;;;;;;;70.03;38.38;;;;;;;15.75;73.08;100257.88;5025470;27;97993;-76
2024/03/03 07:33:31;;;;;;;65.00;37.78;;;;;;;15.95;72.30;100260.06;5026746;27;97195;-76
2024/03/03 07:35:58;;;;;;;65.97;38.47;;;;;;;15.83;72.35;100260.88;5032604;27;96793;-76
2024/03/03 07:38:24;;;;;;;68.20;39.25;;;;;;;15.89;72.88;100253.34;5026290;27;99796;-74
2024/03/03 07:40:54;;;;;;;67.93;38.70;;;;;;;15.77;72.92;100256.81;5030835;27;99753;-75
2024/03/03 07:43:22;;;;;;;64.00;37.30;;;;;;;16.26;71.70;100248.28;5022119;27;97106;-74
2024/03/03 07:45:49;;;;;;;71.38;38.30;;;;;;;16.28;70.27;100249.88;5019470;27;97434;-74
2024/03/03 07:48:16;;;;;;;70.70;37.80;;;;;;;16.27;70.53;100247.31;5025040;27;99377;-74
2024/03/03 07:50:42;;;;;;;61.75;36.45;;;;;;;16.21;70.82;100240.56;5031431;27;98891;-74
2024/03/03 07:53:10;;;;;;;60.13;36.20;;;;;;;16.10;71.11;100245.75;5022583;27;96827;-73
2024/03/03 07:55:37;;;;;;;62.78;36.42;;;;;;;16.10;71.07;100251.09;5027812;27;97191;-74
2024/03/03 07:58:03;;;;;;;64.07;36.40;;;;;;;16.26;70.47;100249.13;5026989;27;97593;-73
2024/03/03 08:00:33;;;;;;;58.35;33.55;;;;;;;16.73;68.94;100247.75;5021236;27;97879;-75
2024/03/03 08:03:01;;;;;;;59.92;34.75;;;;;;;16.55;69.07;100254.28;5031879;27;97194;-74
2024/03/03 08:05:28;;;;;;;60.58;34.10;;;;;;;16.35;70.04;100256.50;5033343;27;97019;-76
2024/03/03 08:07:55;;;;;;;59.67;35.05;;;;;;;16.70;68.66;100254.16;5028979;27;99904;-75
2024/03/03 08:10:21;;;;;;;60.70;35.53;;;;;;;16.81;67.71;100258.72;5025565;27;99388;-75
2024/03/03 08:12:48;;;;;;;56.13;33.42;;;;;;;16.85;67.52;100260.25;5029790;27;96825;-75
2024/03/03 08:15:15;;;;;;;54.00;32.20;;;;;;;17.17;67.02;100251.81;5026565;27;98100;-77
2024/03/03 08:17:42;;;;;;;58.42;33.80;;;;;;;17.24;66.48;100258.44;5027251;27;98202;-76
2024/03/03 08:20:11;;;;;;;56.25;31.60;;;;;;;17.50;65.25;100260.09;5018626;27;101769;-74
2024/03/03 08:22:40;;;;;;;50.92;32.13;;;;;;;17.77;63.85;100255.47;5006830;27;98908;-74
2024/03/03 08:25:09;;;;;;;52.47;31.38;;;;;;;17.48;64.17;100262.88;5021991;27;96947;-74
2024/03/03 08:27:36;;;;;;;52.47;32.30;;;;;;;17.45;64.36;100255.09;5013320;27;99664;-75
2024/03/03 08:30:05;;;;;;;53.90;30.98;;;;;;;17.31;64.22;100243.69;5022824;27;97682;-76
2024/03/03 08:32:31;;;;;;;49.35;30.48;;;;;;;17.25;65.16;100253.00;5022897;27;96780;-75
2024/03/03 08:34:58;;;;;;;48.70;29.35;;;;;;;17.23;64.68;100241.56;5018903;27;96984;-76
2024/03/03 08:37:26;;;;;;;47.25;29.92;;;;;;;17.41;64.20;100247.38;5012300;27;99007;-76
2024/03/03 08:39:52;;;;;;;50.65;30.92;;;;;;;17.50;64.11;100233.38;5016966;27;97854;-76
2024/03/03 08:42:18;;;;;;;49.80;29.95;;;;;;;17.75;63.00;100241.34;5017231;27;98581;-76
2024/03/03 08:44:44;;;;;;;;;;;;;;;17.68;62.19;100249.94;5017970;27;97229;-75
2024/03/03 08:47:11;;;;;;;49.67;28.13;;;;;;;17.60;63.14;100245.09;5015042;27;101440;-76
2024/03/03 08:49:37;;;;;;;48.15;28.58;;;;;;;17.72;62.65;100238.06;5018376;27;98963;-76
2024/03/03 08:52:05;;;;;;;46.30;27.42;;;;;;;17.59;63.13;100238.03;5017215;27;97682;-76
2024/03/03 08:54:33;;;;;;;46.25;27.73;;;;;;;17.89;62.10;100241.22;5017186;27;97266;-76
2024/03/03 08:56:59;;;;;;;42.42;25.92;;;;;;;17.95;61.15;100229.19;5019539;27;98970;-75
2024/03/03 08:59:26;;;;;;;43.47;26.90;;;;;;;17.98;60.89;100236.16;5013958;27;98949;-75
2024/03/03 09:01:52;;;;;;;46.95;27.13;;;;;;;18.23;60.49;100234.22;5019070;27;97370;-67
2024/03/03 09:04:18;;;;;;;41.63;26.25;;;;;;;18.40;59.33;100219.53;5018530;27;98023;-68
2024/03/03 09:06:45;;;;;;;45.72;26.85;;;;;;;18.28;58.49;100221.34;5014366;27;99002;-68
2024/03/03 09:09:16;;;;;;;41.15;25.95;;;;;;;18.14;59.24;100217.97;5018928;27;97550;-68
2024/03/03 09:11:44;;;;;;;42.30;24.95;;;;;;;18.19;59.22;100215.81;5021333;27;98505;-70
2024/03/03 09:14:10;;;;;;;38.97;24.17;;;;;;;18.33;58.55;100218.31;5022905;27;97702;-69
2024/03/03 09:16:36;;;;;;;44.05;25.02;;;;;;;18.15;58.52;100215.19;5018944;27;99304;-69
2024/03/03 09:19:03;;;;;;;38.75;24.10;;;;;;;18.36;57.64;100215.41;5026383;27;98791;-69
2024/03/03 09:21:30;;;;;;;40.45;25.67;;;;;;;18.26;58.12;100214.38;5025079;27;98129;-69
2024/03/03 09:23:56;;;;;;;37.85;23.23;;;;;;;18.22;58.09;100223.63;5024806;27;97356;-69
2024/03/03 09:26:23;;;;;;;41.75;24.45;;;;;;;18.02;58.53;100219.75;5026824;27;98004;-68
2024/03/03 09:28:50;;;;;;;36.25;23.15;;;;;;;18.20;58.62;100220.19;5026351;27;98931;-70
2024/03/03 09:31:17;;;;;;;36.70;21.83;;;;;;;18.41;57.59;100223.94;5028816;27;96753;-69
2024/03/03 09:33:45;;;;;;;40.75;22.30;;;;;;;18.43;57.64;100211.31;5028187;27;97008;-69
2024/03/03 09:36:12;;;;;;;43.30;23.00;;;;;;;18.63;56.15;100204.44;5029014;27;97949;-69
2024/03/03 09:38:38;;;;;;;44.13;22.50;;;;;;;18.62;56.40;100206.28;5026098;27;97744;-68
2024/03/03 09:41:05;;;;;;;33.45;21.42;;;;;;;18.89;55.71;100210.44;5016622;27;96867;-69
2024/03/03 09:43:37;;;;;;;36.70;21.55;;;;;;;18.82;55.47;100199.38;5024356;27;97122;-69
2024/03/03 09:46:05;;;;;;;33.50;21.02;;;;;;;19.01;55.05;100201.44;5024491;27;99507;-68
2024/03/03 09:48:34;;;;;;;37.45;21.35;;;;;;;18.99;54.89;100203.38;5027238;27;98238;-68
2024/03/03 09:51:00;;;;;;;37.75;21.23;;;;;;;18.90;54.68;100204.13;5027624;27;97242;-68
2024/03/03 09:53:28;;;;;;;31.77;19.33;;;;;;;19.02;54.56;100201.34;5030366;27;96971;-68
2024/03/03 09:55:57;;;;;;;32.38;20.27;;;;;;;19.10;54.00;100198.03;5027466;27;99090;-69
2024/03/03 09:58:24;;;;;;;32.97;20.30;;;;;;;19.40;53.67;100200.09;5033607;27;100413;-69
2024/03/03 10:00:52;;;;;;;27.48;18.58;;;;;;;19.47;52.96;100199.50;5027663;27;97451;-69
2024/03/03 10:03:22;;;;;;;29.48;16.88;;;;;;;19.53;51.64;100197.31;5022346;27;96877;-68
2024/03/03 10:05:51;;;;;;;29.95;18.00;;;;;;;19.73;51.37;100199.22;5023225;27;98190;-69
2024/03/03 10:08:22;;;;;;;27.98;17.30;;;;;;;19.69;51.29;100200.47;5024843;27;99238;-69
2024/03/03 10:10:50;;;;;;;26.63;17.30;;;;;;;19.33;51.85;100199.75;5026388;27;97000;-68
2024/03/03 10:13:17;;;;;;;30.67;17.02;;;;;;;19.44;51.62;100205.06;5022930;27;99485;-69
2024/03/03 10:15:45;;;;;;;33.05;16.88;;;;;;;19.57;51.44;100196.94;5020845;27;99388;-69
2024/03/03 10:18:11;;;;;;;25.45;16.05;;;;;;;19.80;50.29;100195.91;5022795;27;98265;-66
2024/03/03 10:20:40;;;;;;;26.10;16.13;;;;;;;19.73;50.56;100192.03;5019241;27;97059;-67
2024/03/03 10:23:06;;;;;;;29.85;17.10;;;;;;;19.85;50.67;100187.47;5023785;27;96881;-68
2024/03/03 10:25:33;;;;;;;26.95;16.27;;;;;;;19.98;49.97;100185.47;5028675;27;98950;-70
2024/03/03 10:28:12;;;;;;;24.52;15.85;;;;;;;19.95;48.89;100180.41;5021678;27;98825;-69
2024/03/03 10:30:42;;;;;;;21.85;13.55;;;;;;;19.69;48.22;100182.50;5019162;27;97576;-68
2024/03/03 10:33:09;;;;;;;26.02;13.55;;;;;;;19.81;48.65;100178.00;5026253;27;96861;-68
2024/03/03 10:35:36;;;;;;;21.65;13.32;;;;;;;19.71;48.42;100174.34;5023985;27;99561;-68
2024/03/03 10:38:04;;;;;;;20.45;13.48;;;;;;;19.84;48.39;100172.38;5023076;27;99412;-69
2024/03/03 10:40:30;;;;;;;22.63;14.35;;;;;;;20.20;47.60;100177.34;5022453;27;97108;-69
2024/03/03 10:42:57;;;;;;;23.73;13.77;;;;;;;20.14;47.95;100167.16;5026248;27;97042;-69
2024/03/03 10:45:23;;;;;;;20.13;12.65;;;;;;;20.25;47.40;100167.06;5021212;27;97680;-69
2024/03/03 10:47:51;;;;;;;19.48;12.48;;;;;;;20.12;46.48;100174.47;5022110;27;99233;-71
2024/03/03 10:50:19;;;;;;;19.15;11.75;;;;;;;20.19;46.02;100167.59;5029904;27;96875;-71
2024/03/03 10:52:45;;;;;;;19.77;11.82;;;;;;;20.03;45.58;100177.03;5025141;27;97822;-70
2024/03/03 10:55:14;;;;;;;18.73;11.02;;;;;;;20.12;44.74;100174.47;5028798;27;101932;-69
2024/03/03 10:57:42;;;;;;;16.05;9.93;;;;;;;20.04;44.78;100168.88;5027938;27;99204;-69
2024/03/03 11:00:14;;;;;;;14.30;9.18;;;;;;;20.08;44.48;100167.66;5033827;27;97135;-69
2024/03/03 11:02:42;;;;;;;14.82;9.25;;;;;;;19.81;44.05;100167.28;5030472;27;99717;-68
2024/03/03 11:05:12;;;;;;;15.13;9.23;;;;;;;19.79;44.32;100158.50;5026933;27;98843;-69
2024/03/03 11:07:39;;;;;;;14.98;9.25;;;;;;;19.98;44.50;100149.78;5036236;27;99953;-69